Flight Track Log - Related Links

Times and Time Zones

All times are in EDT time to prevent confusion due to time zone crossing. See the N870DC flight status page for this flight to view local times or setup timezone preferences in your user account.

Time Position Orientation Groundspeed Altitude Reporting Facility
EDT Latitude Longitude Course Direction KTS MPH feet Rate Location/Type
Tue 06:13:37 PM 29.0867 -95.4225 122° Southeast 218 251 3,000  Level Houston Center
Tue 06:14:35 PM 29.1192 -95.3392 66° East 284 327 6,400 3,630 Climbing Houston Center
Tue 06:15:36 PM 29.1669 -95.2642 54° Northeast 296 341 10,200 2,977 Climbing Houston Center
Tue 06:16:44 PM 29.2203 -95.1733 56° Northeast 333 383 12,800 2,400 Climbing Houston Center
Tue 06:17:46 PM 29.2758 -95.0814 55° Northeast 353 406 15,400 2,565 Climbing Houston Center
Tue 06:18:48 PM 29.3369 -94.9803 55° Northeast 382 440 18,100 2,710 Climbing Houston Center
Tue 06:19:50 PM 29.4119 -94.8564 55° Northeast 396 456 21,000 2,371 Climbing Houston Center
Tue 06:20:52 PM 29.4769 -94.7483 55° Northeast 414 476 23,000 1,984 Climbing Houston Center
Tue 06:21:54 PM 29.5444 -94.6358 55° Northeast 430 495 25,100 1,887 Climbing Houston Center
Tue 06:22:56 PM 29.6147 -94.5183 55° Northeast 445 512 26,900 1,694 Climbing Houston Center
Tue 06:23:58 PM 29.6781 -94.3575 66° East 474 545 28,600 1,500 Climbing Houston Center
Tue 06:25:00 PM 29.7178 -94.2131 72° East 479 551 30,000 1,500 Climbing Houston Center
Tue 06:26:02 PM 29.7608 -94.0603 72° East 486 559 31,700 1,440 Climbing Houston Center
Tue 06:27:05 PM 29.8003 -93.9150 73° East 481 554 33,000 624 Climbing Houston Center
Tue 06:28:07 PM 29.8414 -93.7667 72° East 488 562 33,000  Level Houston Center
Tue 06:29:09 PM 29.8825 -93.6197 72° East 488 562 33,000  Level Houston Center
Tue 06:30:11 PM 29.9294 -93.4436 73° East 485 558 33,000 -48 Level Houston Center
Tue 06:31:13 PM 29.9694 -93.2986 72° East 483 556 32,900 -532 Descending Houston Center
Tue 06:32:15 PM 30.0083 -93.1536 73° East 480 552 31,900 -919 Descending Houston Center
Tue 06:33:17 PM 30.0461 -93.0119 73° East 468 539 31,000 -1,210 Descending Houston Center
Tue 06:34:19 PM 30.0853 -92.8694 72° East 468 539 29,400 -2,226 Descending Houston Center
Tue 06:35:21 PM 30.1319 -92.6950 73° East 474 545 26,400 -2,661 Descending Houston Center
Tue 06:36:23 PM 30.1714 -92.5525 72° East 473 544 23,900 -2,341 Descending Houston Center
Tue 06:37:24 PM 30.2072 -92.4181 73° East 452 520 21,600 -2,293 Descending Houston Center
Tue 06:38:26 PM 30.2419 -92.2761 74° East 428 493 19,200 -1,742 Descending Houston Center
Tue 06:39:28 PM 30.2742 -92.1522 73° East 412 474 18,000 -1,839 Descending Houston Center
Tue 06:40:30 PM 30.3064 -92.0344 72° East 392 451 15,400 -2,419 Descending Houston Center
Tue 06:41:32 PM 30.3350 -91.9242 73° East 366 421 13,000 -1,984 Descending Houston Center
Tue 06:42:34 PM 30.3625 -91.8222 73° East 338 389 11,300 -1,742 Descending Houston Center
Tue 06:43:36 PM 30.3906 -91.7114 74° East 305 351 9,400 -1,500 Descending Houston Center
Tue 06:44:38 PM 30.4069 -91.6389 75° East 290 334 8,200 -1,452 Descending Houston Center
Tue 06:45:40 PM 30.4225 -91.5342 80° East 275 316 6,400 -1,452 Descending Houston Center
Tue 06:46:42 PM 30.4367 -91.4503 79° East 268 308 5,200 -1,113 Descending Houston Center
Tue 06:47:44 PM 30.4514 -91.3636 79° East 272 313 4,100 6,677 Descending Houston Center
Tue 06:48:46 PM 30.4689 -91.2825 76° East 268 308 19,000 14,419 Climbing Houston Center
Tue 06:50:00 PM 30.5143 -91.1475 79° East  Level FlightAware Approximate
Tue 06:57:00 PM 30.5167 -91.1333 79° East  Level FlightAware Approximate
Tue 06:58:00 PM 30.5329 -91.1499 79° East  Level Estimated
Tue 06:59:00 PM 30.5329 -91.1499 79° East  Level Estimated
Tue 07:00:00 PM 30.5329 -91.1499 79° East  Level Estimated

Login

Don't have an account? Register now (free) for customized features, flight alerts, and more!